sensor_id;sensor_type;location;lat;lon;timestamp;pressure;altitude;pressure_sealevel;temperature;humidity
81641;BME280;71053;50.722;-1.944;2023-07-31T00:01:55;100576.80;;;16.71;100.00
81641;BME280;71053;50.722;-1.944;2023-07-31T00:04:20;100570.93;;;16.77;100.00
81641;BME280;71053;50.722;-1.944;2023-07-31T00:06:45;100570.34;;;16.73;100.00
81641;BME280;71053;50.722;-1.944;2023-07-31T00:09:11;100563.74;;;16.87;100.00
81641;BME280;71053;50.722;-1.944;2023-07-31T00:11:36;100563.65;;;16.80;100.00
81641;BME280;71053;50.722;-1.944;2023-07-31T00:14:02;100555.11;;;16.81;100.00
81641;BME280;71053;50.722;-1.944;2023-07-31T00:16:28;100555.39;;;16.75;100.00
81641;BME280;71053;50.722;-1.944;2023-07-31T00:18:53;100545.22;;;16.78;100.00
81641;BME280;71053;50.722;-1.944;2023-07-31T00:21:18;100549.13;;;16.72;100.00
81641;BME280;71053;50.722;-1.944;2023-07-31T00:23:44;100541.01;;;16.77;100.00
81641;BME280;71053;50.722;-1.944;2023-07-31T00:26:10;100537.43;;;16.90;100.00
81641;BME280;71053;50.722;-1.944;2023-07-31T00:28:35;100541.01;;;16.93;100.00
81641;BME280;71053;50.722;-1.944;2023-07-31T00:31:01;100529.69;;;16.81;100.00
81641;BME280;71053;50.722;-1.944;2023-07-31T00:33:26;100532.54;;;16.82;100.00
81641;BME280;71053;50.722;-1.944;2023-07-31T00:35:52;100516.88;;;16.79;100.00
81641;BME280;71053;50.722;-1.944;2023-07-31T00:38:17;100519.45;;;16.84;100.00
81641;BME280;71053;50.722;-1.944;2023-07-31T00:40:42;100504.35;;;16.86;100.00
81641;BME280;71053;50.722;-1.944;2023-07-31T00:43:07;100511.40;;;16.82;100.00
81641;BME280;71053;50.722;-1.944;2023-07-31T00:45:33;100512.42;;;16.77;100.00
81641;BME280;71053;50.722;-1.944;2023-07-31T00:47:58;100508.59;;;16.79;100.00
81641;BME280;71053;50.722;-1.944;2023-07-31T00:50:24;100498.56;;;16.82;100.00
81641;BME280;71053;50.722;-1.944;2023-07-31T00:52:48;100492.73;;;16.78;100.00
81641;BME280;71053;50.722;-1.944;2023-07-31T00:55:13;100500.89;;;16.84;100.00
81641;BME280;71053;50.722;-1.944;2023-07-31T00:57:41;100509.06;;;16.77;100.00
81641;BME280;71053;50.722;-1.944;2023-07-31T01:00:05;100503.79;;;16.83;100.00
81641;BME280;71053;50.722;-1.944;2023-07-31T01:02:29;100488.71;;;16.78;100.00
81641;BME280;71053;50.722;-1.944;2023-07-31T01:04:55;100485.19;;;16.83;100.00
81641;BME280;71053;50.722;-1.944;2023-07-31T01:07:24;100483.72;;;16.91;100.00
81641;BME280;71053;50.722;-1.944;2023-07-31T01:09:52;100481.47;;;16.89;100.00
81641;BME280;71053;50.722;-1.944;2023-07-31T01:12:14;100473.56;;;16.89;100.00
81641;BME280;71053;50.722;-1.944;2023-07-31T01:14:35;100478.40;;;16.91;100.00
81641;BME280;71053;50.722;-1.944;2023-07-31T01:17:01;100486.87;;;16.89;100.00
81641;BME280;71053;50.722;-1.944;2023-07-31T01:19:27;100483.47;;;16.85;100.00
81641;BME280;71053;50.722;-1.944;2023-07-31T01:24:22;100468.03;;;16.95;100.00
81641;BME280;71053;50.722;-1.944;2023-07-31T01:26:43;100470.65;;;16.97;100.00
81641;BME280;71053;50.722;-1.944;2023-07-31T01:29:12;100465.07;;;16.91;100.00
81641;BME280;71053;50.722;-1.944;2023-07-31T01:31:33;100461.43;;;16.90;100.00
81641;BME280;71053;50.722;-1.944;2023-07-31T01:34:01;100463.24;;;16.97;100.00
81641;BME280;71053;50.722;-1.944;2023-07-31T01:36:23;100445.71;;;16.96;100.00
81641;BME280;71053;50.722;-1.944;2023-07-31T01:38:48;100445.68;;;16.89;100.00
81641;BME280;71053;50.722;-1.944;2023-07-31T01:41:17;100446.17;;;16.90;100.00
81641;BME280;71053;50.722;-1.944;2023-07-31T01:43:39;100434.77;;;16.97;100.00
81641;BME280;71053;50.722;-1.944;2023-07-31T01:46:04;100457.53;;;16.85;100.00
81641;BME280;71053;50.722;-1.944;2023-07-31T01:48:30;100439.02;;;16.89;100.00
81641;BME280;71053;50.722;-1.944;2023-07-31T01:50:55;100440.69;;;16.94;100.00
81641;BME280;71053;50.722;-1.944;2023-07-31T01:53:21;100433.60;;;16.90;100.00
81641;BME280;71053;50.722;-1.944;2023-07-31T01:55:46;100434.46;;;16.84;100.00
81641;BME280;71053;50.722;-1.944;2023-07-31T01:58:11;100433.85;;;16.91;100.00
81641;BME280;71053;50.722;-1.944;2023-07-31T02:00:37;100423.25;;;16.79;100.00
81641;BME280;71053;50.722;-1.944;2023-07-31T02:03:02;100408.53;;;16.83;100.00
81641;BME280;71053;50.722;-1.944;2023-07-31T02:05:27;100420.40;;;16.80;100.00
81641;BME280;71053;50.722;-1.944;2023-07-31T02:07:53;100413.18;;;16.91;100.00
81641;BME280;71053;50.722;-1.944;2023-07-31T02:10:18;100407.50;;;16.94;100.00
81641;BME280;71053;50.722;-1.944;2023-07-31T02:12:43;100410.25;;;16.93;100.00
81641;BME280;71053;50.722;-1.944;2023-07-31T02:15:09;100404.61;;;16.89;100.00
81641;BME280;71053;50.722;-1.944;2023-07-31T02:17:33;100400.88;;;16.91;100.00
81641;BME280;71053;50.722;-1.944;2023-07-31T02:19:58;100393.26;;;16.89;100.00
81641;BME280;71053;50.722;-1.944;2023-07-31T02:22:24;100387.66;;;16.89;100.00
81641;BME280;71053;50.722;-1.944;2023-07-31T02:24:49;100391.79;;;16.90;100.00
81641;BME280;71053;50.722;-1.944;2023-07-31T02:27:14;100392.14;;;16.88;100.00
81641;BME280;71053;50.722;-1.944;2023-07-31T02:29:39;100387.39;;;16.90;100.00
81641;BME280;71053;50.722;-1.944;2023-07-31T02:32:05;100388.61;;;16.97;100.00
81641;BME280;71053;50.722;-1.944;2023-07-31T02:34:29;100387.22;;;16.95;100.00
81641;BME280;71053;50.722;-1.944;2023-07-31T02:36:55;100383.36;;;17.04;100.00
81641;BME280;71053;50.722;-1.944;2023-07-31T02:39:20;100378.40;;;17.03;100.00
81641;BME280;71053;50.722;-1.944;2023-07-31T02:41:47;100376.71;;;17.04;100.00
81641;BME280;71053;50.722;-1.944;2023-07-31T02:44:11;100381.69;;;17.01;100.00
81641;BME280;71053;50.722;-1.944;2023-07-31T02:46:37;100374.02;;;17.03;100.00
81641;BME280;71053;50.722;-1.944;2023-07-31T02:49:02;100371.12;;;17.05;100.00
81641;BME280;71053;50.722;-1.944;2023-07-31T02:51:27;100369.21;;;17.00;100.00
81641;BME280;71053;50.722;-1.944;2023-07-31T02:53:53;100370.72;;;16.99;100.00
81641;BME280;71053;50.722;-1.944;2023-07-31T02:56:18;100368.80;;;17.16;100.00
81641;BME280;71053;50.722;-1.944;2023-07-31T02:58:44;100365.35;;;17.13;100.00
81641;BME280;71053;50.722;-1.944;2023-07-31T03:01:09;100366.10;;;17.14;100.00
81641;BME280;71053;50.722;-1.944;2023-07-31T03:03:34;100360.03;;;17.15;100.00
81641;BME280;71053;50.722;-1.944;2023-07-31T03:05:59;100360.66;;;17.14;100.00
81641;BME280;71053;50.722;-1.944;2023-07-31T03:08:24;100364.92;;;17.13;100.00
81641;BME280;71053;50.722;-1.944;2023-07-31T03:10:50;100354.76;;;17.18;100.00
81641;BME280;71053;50.722;-1.944;2023-07-31T03:13:15;100360.51;;;17.18;100.00
81641;BME280;71053;50.722;-1.944;2023-07-31T03:15:42;100357.01;;;17.09;100.00
81641;BME280;71053;50.722;-1.944;2023-07-31T03:18:05;100356.08;;;17.19;100.00
81641;BME280;71053;50.722;-1.944;2023-07-31T03:20:30;100360.51;;;17.20;100.00
81641;BME280;71053;50.722;-1.944;2023-07-31T03:22:56;100356.08;;;17.20;100.00
81641;BME280;71053;50.722;-1.944;2023-07-31T03:25:21;100348.08;;;17.23;100.00
81641;BME280;71053;50.722;-1.944;2023-07-31T03:27:46;100341.84;;;17.26;100.00
81641;BME280;71053;50.722;-1.944;2023-07-31T03:30:11;100344.58;;;17.24;100.00
81641;BME280;71053;50.722;-1.944;2023-07-31T03:32:37;100340.63;;;17.25;100.00
81641;BME280;71053;50.722;-1.944;2023-07-31T03:35:02;100341.92;;;17.26;100.00
81641;BME280;71053;50.722;-1.944;2023-07-31T03:37:27;100335.46;;;17.25;100.00
81641;BME280;71053;50.722;-1.944;2023-07-31T03:39:52;100335.88;;;17.32;100.00
81641;BME280;71053;50.722;-1.944;2023-07-31T03:42:17;100336.93;;;17.34;100.00
81641;BME280;71053;50.722;-1.944;2023-07-31T03:44:42;100332.17;;;17.32;100.00
81641;BME280;71053;50.722;-1.944;2023-07-31T03:47:08;100327.76;;;17.24;100.00
81641;BME280;71053;50.722;-1.944;2023-07-31T03:49:33;100329.02;;;17.19;100.00
81641;BME280;71053;50.722;-1.944;2023-07-31T03:51:58;100323.88;;;17.21;100.00
81641;BME280;71053;50.722;-1.944;2023-07-31T03:54:23;100321.07;;;17.24;100.00
81641;BME280;71053;50.722;-1.944;2023-07-31T03:56:48;100324.53;;;17.15;100.00
81641;BME280;71053;50.722;-1.944;2023-07-31T03:59:13;100326.22;;;17.17;100.00
81641;BME280;71053;50.722;-1.944;2023-07-31T04:01:39;100322.41;;;17.23;100.00
81641;BME280;71053;50.722;-1.944;2023-07-31T04:04:04;100325.31;;;17.24;100.00
81641;BME280;71053;50.722;-1.944;2023-07-31T04:06:29;100326.86;;;17.22;100.00
81641;BME280;71053;50.722;-1.944;2023-07-31T04:08:55;100323.28;;;17.19;100.00
81641;BME280;71053;50.722;-1.944;2023-07-31T04:11:20;100319.82;;;17.15;100.00
81641;BME280;71053;50.722;-1.944;2023-07-31T04:13:46;100320.38;;;17.26;100.00
81641;BME280;71053;50.722;-1.944;2023-07-31T04:16:11;100322.43;;;17.25;100.00
81641;BME280;71053;50.722;-1.944;2023-07-31T04:18:37;100319.89;;;17.09;100.00
81641;BME280;71053;50.722;-1.944;2023-07-31T04:21:02;100312.27;;;17.15;100.00
81641;BME280;71053;50.722;-1.944;2023-07-31T04:23:27;100309.53;;;17.18;100.00
81641;BME280;71053;50.722;-1.944;2023-07-31T04:25:52;100310.99;;;17.14;100.00
81641;BME280;71053;50.722;-1.944;2023-07-31T04:28:18;100313.16;;;17.18;100.00
81641;BME280;71053;50.722;-1.944;2023-07-31T04:30:43;100309.67;;;17.25;100.00
81641;BME280;71053;50.722;-1.944;2023-07-31T04:33:09;100307.58;;;17.28;100.00
81641;BME280;71053;50.722;-1.944;2023-07-31T04:35:34;100304.07;;;17.33;100.00
81641;BME280;71053;50.722;-1.944;2023-07-31T04:37:59;100308.39;;;17.29;100.00
81641;BME280;71053;50.722;-1.944;2023-07-31T04:40:24;100312.39;;;17.32;100.00
81641;BME280;71053;50.722;-1.944;2023-07-31T04:42:50;100306.15;;;17.35;100.00
81641;BME280;71053;50.722;-1.944;2023-07-31T04:45:15;100308.98;;;17.31;100.00
81641;BME280;71053;50.722;-1.944;2023-07-31T04:47:41;100316.99;;;17.28;100.00
81641;BME280;71053;50.722;-1.944;2023-07-31T04:50:07;100314.10;;;17.29;100.00
81641;BME280;71053;50.722;-1.944;2023-07-31T04:52:31;100307.58;;;17.29;100.00
81641;BME280;71053;50.722;-1.944;2023-07-31T04:54:56;100302.61;;;17.45;100.00
81641;BME280;71053;50.722;-1.944;2023-07-31T04:57:21;100301.39;;;17.35;100.00
81641;BME280;71053;50.722;-1.944;2023-07-31T04:59:46;100298.58;;;17.34;100.00
81641;BME280;71053;50.722;-1.944;2023-07-31T05:02:12;100296.79;;;17.41;100.00
81641;BME280;71053;50.722;-1.944;2023-07-31T05:04:37;100290.68;;;17.41;100.00
81641;BME280;71053;50.722;-1.944;2023-07-31T05:07:02;100286.40;;;17.35;100.00
81641;BME280;71053;50.722;-1.944;2023-07-31T05:09:27;100291.25;;;17.37;100.00
81641;BME280;71053;50.722;-1.944;2023-07-31T05:11:54;100287.29;;;17.43;100.00
81641;BME280;71053;50.722;-1.944;2023-07-31T05:14:17;100278.62;;;17.45;100.00
81641;BME280;71053;50.722;-1.944;2023-07-31T05:16:42;100276.72;;;17.38;100.00
81641;BME280;71053;50.722;-1.944;2023-07-31T05:19:08;100283.11;;;17.46;100.00
81641;BME280;71053;50.722;-1.944;2023-07-31T05:21:33;100286.17;;;17.36;100.00
81641;BME280;71053;50.722;-1.944;2023-07-31T05:23:58;100284.14;;;17.48;100.00
81641;BME280;71053;50.722;-1.944;2023-07-31T05:26:24;100281.42;;;17.38;100.00
81641;BME280;71053;50.722;-1.944;2023-07-31T05:28:49;100286.51;;;17.38;100.00
81641;BME280;71053;50.722;-1.944;2023-07-31T05:31:14;100283.09;;;17.46;100.00
81641;BME280;71053;50.722;-1.944;2023-07-31T05:33:39;100285.79;;;17.44;100.00
81641;BME280;71053;50.722;-1.944;2023-07-31T05:36:04;100284.57;;;17.34;100.00
81641;BME280;71053;50.722;-1.944;2023-07-31T05:38:29;100282.91;;;17.42;100.00
81641;BME280;71053;50.722;-1.944;2023-07-31T05:40:54;100281.36;;;17.38;100.00
81641;BME280;71053;50.722;-1.944;2023-07-31T05:43:20;100281.70;;;17.32;100.00
81641;BME280;71053;50.722;-1.944;2023-07-31T05:45:45;100281.86;;;17.27;100.00
81641;BME280;71053;50.722;-1.944;2023-07-31T05:48:10;100281.42;;;17.26;100.00
81641;BME280;71053;50.722;-1.944;2023-07-31T05:50:35;100279.65;;;17.27;100.00
81641;BME280;71053;50.722;-1.944;2023-07-31T05:53:00;100278.93;;;17.29;100.00
81641;BME280;71053;50.722;-1.944;2023-07-31T05:55:26;100274.11;;;17.35;100.00
81641;BME280;71053;50.722;-1.944;2023-07-31T05:57:51;100270.62;;;17.43;100.00
81641;BME280;71053;50.722;-1.944;2023-07-31T06:00:16;100266.80;;;17.45;100.00
81641;BME280;71053;50.722;-1.944;2023-07-31T06:02:41;100265.40;;;17.38;100.00
81641;BME280;71053;50.722;-1.944;2023-07-31T06:05:07;100268.18;;;17.33;100.00
81641;BME280;71053;50.722;-1.944;2023-07-31T06:07:31;100267.07;;;17.18;100.00
81641;BME280;71053;50.722;-1.944;2023-07-31T06:09:56;100266.33;;;17.37;100.00
81641;BME280;71053;50.722;-1.944;2023-07-31T06:12:21;100269.95;;;17.31;100.00
81641;BME280;71053;50.722;-1.944;2023-07-31T06:14:47;100267.89;;;17.46;100.00
81641;BME280;71053;50.722;-1.944;2023-07-31T06:17:12;100269.10;;;17.41;100.00
81641;BME280;71053;50.722;-1.944;2023-07-31T06:19:37;100262.71;;;17.26;100.00
81641;BME280;71053;50.722;-1.944;2023-07-31T06:22:03;100254.58;;;17.34;100.00
81641;BME280;71053;50.722;-1.944;2023-07-31T06:24:28;100251.89;;;17.36;100.00
81641;BME280;71053;50.722;-1.944;2023-07-31T06:26:54;100259.86;;;17.41;100.00
81641;BME280;71053;50.722;-1.944;2023-07-31T06:29:18;100259.49;;;17.42;100.00
81641;BME280;71053;50.722;-1.944;2023-07-31T06:31:43;100256.40;;;17.45;100.00
81641;BME280;71053;50.722;-1.944;2023-07-31T06:34:08;100257.01;;;17.55;100.00
81641;BME280;71053;50.722;-1.944;2023-07-31T06:36:33;100252.67;;;17.53;100.00
81641;BME280;71053;50.722;-1.944;2023-07-31T06:38:59;100254.09;;;17.52;100.00
81641;BME280;71053;50.722;-1.944;2023-07-31T06:41:24;100261.57;;;17.41;100.00
81641;BME280;71053;50.722;-1.944;2023-07-31T06:43:49;100256.54;;;17.42;100.00
81641;BME280;71053;50.722;-1.944;2023-07-31T06:46:15;100260.40;;;17.44;100.00
81641;BME280;71053;50.722;-1.944;2023-07-31T06:48:40;100251.47;;;17.55;100.00
81641;BME280;71053;50.722;-1.944;2023-07-31T06:51:05;100244.81;;;17.42;100.00
81641;BME280;71053;50.722;-1.944;2023-07-31T06:53:30;100249.01;;;17.36;100.00
81641;BME280;71053;50.722;-1.944;2023-07-31T06:55:55;100247.85;;;17.33;100.00
81641;BME280;71053;50.722;-1.944;2023-07-31T06:58:20;100243.48;;;17.45;100.00
81641;BME280;71053;50.722;-1.944;2023-07-31T07:00:45;100243.81;;;17.43;100.00
81641;BME280;71053;50.722;-1.944;2023-07-31T07:03:11;100247.64;;;17.46;100.00
81641;BME280;71053;50.722;-1.944;2023-07-31T07:05:36;100243.81;;;17.51;100.00
81641;BME280;71053;50.722;-1.944;2023-07-31T07:08:01;100242.60;;;17.55;100.00
81641;BME280;71053;50.722;-1.944;2023-07-31T07:10:26;100243.10;;;17.51;100.00
81641;BME280;71053;50.722;-1.944;2023-07-31T07:12:51;100240.43;;;17.55;100.00
81641;BME280;71053;50.722;-1.944;2023-07-31T07:15:16;100238.82;;;17.61;100.00
81641;BME280;71053;50.722;-1.944;2023-07-31T07:17:41;100233.82;;;17.58;100.00
81641;BME280;71053;50.722;-1.944;2023-07-31T07:20:08;100229.39;;;17.64;100.00
81641;BME280;71053;50.722;-1.944;2023-07-31T07:22:32;100230.77;;;17.54;100.00
81641;BME280;71053;50.722;-1.944;2023-07-31T07:24:57;100226.63;;;17.68;100.00
81641;BME280;71053;50.722;-1.944;2023-07-31T07:27:23;100228.60;;;17.61;100.00
81641;BME280;71053;50.722;-1.944;2023-07-31T07:29:50;100227.62;;;17.62;100.00
81641;BME280;71053;50.722;-1.944;2023-07-31T07:32:13;100228.83;;;17.67;100.00
81641;BME280;71053;50.722;-1.944;2023-07-31T07:34:38;100223.94;;;17.49;100.00
81641;BME280;71053;50.722;-1.944;2023-07-31T07:37:04;100227.71;;;17.65;100.00
81641;BME280;71053;50.722;-1.944;2023-07-31T07:39:28;100222.22;;;17.73;100.00
81641;BME280;71053;50.722;-1.944;2023-07-31T07:41:53;100222.13;;;17.64;100.00
81641;BME280;71053;50.722;-1.944;2023-07-31T07:44:18;100221.74;;;17.74;100.00
81641;BME280;71053;50.722;-1.944;2023-07-31T07:46:44;100220.70;;;17.81;100.00
81641;BME280;71053;50.722;-1.944;2023-07-31T07:49:09;100215.82;;;17.71;100.00
81641;BME280;71053;50.722;-1.944;2023-07-31T07:51:34;100212.28;;;17.79;100.00
81641;BME280;71053;50.722;-1.944;2023-07-31T07:53:59;100207.67;;;17.80;100.00
81641;BME280;71053;50.722;-1.944;2023-07-31T07:56:26;100206.72;;;17.94;100.00
81641;BME280;71053;50.722;-1.944;2023-07-31T07:58:50;100200.45;;;17.89;100.00
81641;BME280;71053;50.722;-1.944;2023-07-31T08:01:14;100200.23;;;17.95;100.00
81641;BME280;71053;50.722;-1.944;2023-07-31T08:03:39;100206.79;;;17.95;100.00
81641;BME280;71053;50.722;-1.944;2023-07-31T08:06:05;100207.96;;;17.99;100.00
81641;BME280;71053;50.722;-1.944;2023-07-31T08:08:30;100203.40;;;18.02;100.00
81641;BME280;71053;50.722;-1.944;2023-07-31T08:10:55;100199.29;;;17.94;100.00
81641;BME280;71053;50.722;-1.944;2023-07-31T08:13:21;100198.56;;;17.97;100.00
81641;BME280;71053;50.722;-1.944;2023-07-31T08:15:46;100193.20;;;18.09;100.00
81641;BME280;71053;50.722;-1.944;2023-07-31T08:18:11;100198.29;;;18.00;100.00
81641;BME280;71053;50.722;-1.944;2023-07-31T08:20:36;100195.19;;;17.97;100.00
81641;BME280;71053;50.722;-1.944;2023-07-31T08:23:01;100196.71;;;17.95;100.00
81641;BME280;71053;50.722;-1.944;2023-07-31T08:25:27;100195.34;;;18.04;100.00
81641;BME280;71053;50.722;-1.944;2023-07-31T08:27:51;100192.79;;;18.08;100.00
81641;BME280;71053;50.722;-1.944;2023-07-31T08:30:17;100192.89;;;18.14;100.00
81641;BME280;71053;50.722;-1.944;2023-07-31T08:32:42;100198.72;;;18.23;100.00
81641;BME280;71053;50.722;-1.944;2023-07-31T08:35:07;100191.00;;;18.24;100.00
81641;BME280;71053;50.722;-1.944;2023-07-31T08:37:32;100191.58;;;18.26;99.95
81641;BME280;71053;50.722;-1.944;2023-07-31T08:39:57;100189.07;;;18.30;100.00
81641;BME280;71053;50.722;-1.944;2023-07-31T08:42:22;100187.12;;;18.41;99.80
81641;BME280;71053;50.722;-1.944;2023-07-31T08:44:48;100186.23;;;18.42;99.56
81641;BME280;71053;50.722;-1.944;2023-07-31T08:47:13;100176.85;;;18.36;99.41
81641;BME280;71053;50.722;-1.944;2023-07-31T08:49:38;100174.37;;;18.36;98.51
81641;BME280;71053;50.722;-1.944;2023-07-31T08:52:03;100178.07;;;18.45;98.98
81641;BME280;71053;50.722;-1.944;2023-07-31T08:54:29;100181.27;;;18.34;99.21
81641;BME280;71053;50.722;-1.944;2023-07-31T08:56:54;100192.07;;;18.38;98.93
81641;BME280;71053;50.722;-1.944;2023-07-31T08:59:19;100197.62;;;18.42;98.17
81641;BME280;71053;50.722;-1.944;2023-07-31T09:01:48;100196.45;;;18.50;98.07
81641;BME280;71053;50.722;-1.944;2023-07-31T09:04:09;100187.44;;;18.34;98.36
81641;BME280;71053;50.722;-1.944;2023-07-31T09:06:34;100181.83;;;18.55;98.07
81641;BME280;71053;50.722;-1.944;2023-07-31T09:08:59;100174.44;;;18.61;96.53
81641;BME280;71053;50.722;-1.944;2023-07-31T09:11:24;100173.00;;;18.58;97.22
81641;BME280;71053;50.722;-1.944;2023-07-31T09:13:50;100174.46;;;18.42;96.43
81641;BME280;71053;50.722;-1.944;2023-07-31T09:16:14;100170.33;;;18.43;97.42
81641;BME280;71053;50.722;-1.944;2023-07-31T09:21:05;100165.81;;;18.42;97.62
81641;BME280;71053;50.722;-1.944;2023-07-31T09:23:41;100160.79;;;18.46;98.43
81641;BME280;71053;50.722;-1.944;2023-07-31T09:25:55;100149.17;;;18.52;97.92
81641;BME280;71053;50.722;-1.944;2023-07-31T09:28:20;100154.69;;;18.59;97.67
81641;BME280;71053;50.722;-1.944;2023-07-31T09:30:47;100156.04;;;18.69;97.48
81641;BME280;71053;50.722;-1.944;2023-07-31T09:33:10;100160.86;;;18.67;96.95
81641;BME280;71053;50.722;-1.944;2023-07-31T09:35:35;100160.57;;;18.80;96.25
81641;BME280;71053;50.722;-1.944;2023-07-31T09:38:03;100155.62;;;18.71;97.25
81641;BME280;71053;50.722;-1.944;2023-07-31T09:40:27;100148.30;;;18.54;96.91
81641;BME280;71053;50.722;-1.944;2023-07-31T09:42:50;100147.82;;;18.56;95.59
81641;BME280;71053;50.722;-1.944;2023-07-31T09:45:15;100156.46;;;18.61;95.56
81641;BME280;71053;50.722;-1.944;2023-07-31T09:47:46;100150.22;;;18.65;95.21
81641;BME280;71053;50.722;-1.944;2023-07-31T09:50:07;100159.87;;;18.40;95.49
81641;BME280;71053;50.722;-1.944;2023-07-31T09:52:31;100163.01;;;18.49;95.85
81641;BME280;71053;50.722;-1.944;2023-07-31T09:54:56;100166.31;;;18.35;95.71
81641;BME280;71053;50.722;-1.944;2023-07-31T09:57:22;100171.14;;;18.42;96.33
81641;BME280;71053;50.722;-1.944;2023-07-31T09:59:47;100178.83;;;18.33;96.53
81641;BME280;71053;50.722;-1.944;2023-07-31T10:02:15;100184.81;;;18.35;96.17
81641;BME280;71053;50.722;-1.944;2023-07-31T10:04:36;100172.96;;;18.38;95.81
81641;BME280;71053;50.722;-1.944;2023-07-31T10:07:02;100165.14;;;18.18;95.80
81641;BME280;71053;50.722;-1.944;2023-07-31T10:09:31;100164.77;;;18.33;95.29
81641;BME280;71053;50.722;-1.944;2023-07-31T10:11:55;100178.36;;;18.39;95.11
81641;BME280;71053;50.722;-1.944;2023-07-31T10:14:18;100188.51;;;18.42;95.21
81641;BME280;71053;50.722;-1.944;2023-07-31T10:16:42;100194.81;;;18.45;95.11
81641;BME280;71053;50.722;-1.944;2023-07-31T10:19:08;100210.70;;;18.43;94.25
81641;BME280;71053;50.722;-1.944;2023-07-31T10:21:32;100211.73;;;18.46;94.64
81641;BME280;71053;50.722;-1.944;2023-07-31T10:23:57;100211.85;;;18.32;94.05
81641;BME280;71053;50.722;-1.944;2023-07-31T10:26:23;100196.85;;;18.47;94.55
81641;BME280;71053;50.722;-1.944;2023-07-31T10:28:48;100185.66;;;18.38;93.08
81641;BME280;71053;50.722;-1.944;2023-07-31T10:31:13;100186.78;;;18.45;93.43
81641;BME280;71053;50.722;-1.944;2023-07-31T10:33:38;100193.60;;;18.41;93.57
81641;BME280;71053;50.722;-1.944;2023-07-31T10:36:13;100198.09;;;18.40;93.34
81641;BME280;71053;50.722;-1.944;2023-07-31T10:38:28;100198.16;;;18.53;92.66
81641;BME280;71053;50.722;-1.944;2023-07-31T10:43:25;100214.35;;;18.45;92.82
81641;BME280;71053;50.722;-1.944;2023-07-31T10:45:43;100209.86;;;18.44;93.20
81641;BME280;71053;50.722;-1.944;2023-07-31T10:48:14;100206.11;;;18.52;93.00
81641;BME280;71053;50.722;-1.944;2023-07-31T10:50:38;100192.25;;;18.63;92.42
81641;BME280;71053;50.722;-1.944;2023-07-31T10:52:59;100189.15;;;18.58;92.88
81641;BME280;71053;50.722;-1.944;2023-07-31T10:55:27;100202.59;;;18.52;92.75
81641;BME280;71053;50.722;-1.944;2023-07-31T10:57:49;100198.15;;;18.60;92.62
81641;BME280;71053;50.722;-1.944;2023-07-31T11:00:22;100181.96;;;18.60;92.49
81641;BME280;71053;50.722;-1.944;2023-07-31T11:02:39;100193.47;;;18.60;92.37
81641;BME280;71053;50.722;-1.944;2023-07-31T11:05:08;100205.16;;;18.72;92.14
81641;BME280;71053;50.722;-1.944;2023-07-31T11:09:54;100190.87;;;18.77;91.77
81641;BME280;71053;50.722;-1.944;2023-07-31T11:12:20;100196.38;;;18.80;92.28
81641;BME280;71053;50.722;-1.944;2023-07-31T11:14:53;100203.36;;;18.88;92.13
81641;BME280;71053;50.722;-1.944;2023-07-31T11:17:10;100210.92;;;18.99;92.18
81641;BME280;71053;50.722;-1.944;2023-07-31T11:19:38;100199.41;;;18.84;90.86
81641;BME280;71053;50.722;-1.944;2023-07-31T11:22:00;100191.34;;;18.92;91.65
81641;BME280;71053;50.722;-1.944;2023-07-31T11:24:25;100185.75;;;18.82;91.47
81641;BME280;71053;50.722;-1.944;2023-07-31T11:26:51;100191.07;;;18.87;92.28
81641;BME280;71053;50.722;-1.944;2023-07-31T11:29:15;100193.60;;;18.53;92.42
81641;BME280;71053;50.722;-1.944;2023-07-31T11:31:42;100196.58;;;18.46;93.11
81641;BME280;71053;50.722;-1.944;2023-07-31T11:34:05;100183.39;;;18.49;93.85
81641;BME280;71053;50.722;-1.944;2023-07-31T11:36:31;100185.64;;;18.70;92.48
81641;BME280;71053;50.722;-1.944;2023-07-31T11:39:04;100183.26;;;18.76;92.92
81641;BME280;71053;50.722;-1.944;2023-07-31T11:41:21;100175.04;;;18.76;93.14
81641;BME280;71053;50.722;-1.944;2023-07-31T11:43:46;100158.55;;;18.97;91.77
81641;BME280;71053;50.722;-1.944;2023-07-31T11:46:11;100157.68;;;18.86;90.70
81641;BME280;71053;50.722;-1.944;2023-07-31T11:48:37;100148.54;;;18.97;90.75
81641;BME280;71053;50.722;-1.944;2023-07-31T11:51:03;100140.11;;;18.85;90.94
81641;BME280;71053;50.722;-1.944;2023-07-31T11:53:29;100141.53;;;18.94;91.74
81641;BME280;71053;50.722;-1.944;2023-07-31T11:55:52;100144.03;;;18.99;91.13
81641;BME280;71053;50.722;-1.944;2023-07-31T11:58:18;100135.86;;;18.78;92.37
81641;BME280;71053;50.722;-1.944;2023-07-31T12:00:42;100142.37;;;18.74;93.08
81641;BME280;71053;50.722;-1.944;2023-07-31T12:03:07;100124.88;;;18.74;92.65
81641;BME280;71053;50.722;-1.944;2023-07-31T12:05:32;100111.50;;;18.75;91.94
81641;BME280;71053;50.722;-1.944;2023-07-31T12:07:57;100117.44;;;18.70;92.91
81641;BME280;71053;50.722;-1.944;2023-07-31T12:10:24;100109.15;;;18.62;92.66
81641;BME280;71053;50.722;-1.944;2023-07-31T12:12:56;100118.60;;;18.85;92.47
81641;BME280;71053;50.722;-1.944;2023-07-31T12:15:15;100131.09;;;18.79;91.43
81641;BME280;71053;50.722;-1.944;2023-07-31T12:17:38;100131.40;;;18.92;90.98
81641;BME280;71053;50.722;-1.944;2023-07-31T12:20:04;100128.65;;;18.87;91.87
81641;BME280;71053;50.722;-1.944;2023-07-31T12:22:28;100107.32;;;18.77;90.70
81641;BME280;71053;50.722;-1.944;2023-07-31T12:24:54;100118.33;;;18.69;91.77
81641;BME280;71053;50.722;-1.944;2023-07-31T12:27:18;100130.76;;;18.64;91.31
81641;BME280;71053;50.722;-1.944;2023-07-31T12:29:43;100141.97;;;18.71;91.80
81641;BME280;71053;50.722;-1.944;2023-07-31T12:32:19;100144.48;;;18.61;91.72